Time;durP1;ratioP1;P1;durP2;ratioP2;P2;SDS_P1;SDS_P2;PMS_P1;PMS_P2;Temp;Humidity;BMP_temperature;BMP_pressure;BME280_temperature;BME280_humidity;BME280_pressure;Samples;Min_cycle;Max_cycle;Signal;HPM_P1;HPM_P2
2023/08/15 04:10:23;;;;;;;7.00;5.00;;;;;;;18.66;100.00;100765.81;6355884;27;20421;31
2023/08/15 04:13:27;;;;;;;5.18;4.55;;;;;;;18.66;100.00;100763.09;5377760;33;33510;-85
2023/08/15 04:16:30;;;;;;;7.72;5.05;;;;;;;18.75;100.00;100762.66;5379740;33;34013;-85
2023/08/15 04:19:33;;;;;;;9.77;5.35;;;;;;;18.78;100.00;100767.66;5378547;33;34244;-85
2023/08/15 04:22:36;;;;;;;5.57;4.90;;;;;;;18.82;100.00;100767.22;5366549;33;33725;-85
2023/08/15 04:25:40;;;;;;;5.97;4.57;;;;;;;18.87;100.00;100764.66;5366481;33;34547;-85
2023/08/15 04:28:43;;;;;;;4.85;4.35;;;;;;;18.93;100.00;100771.94;5378471;33;33810;-85
2023/08/15 04:31:46;;;;;;;5.03;4.53;;;;;;;18.99;100.00;100771.88;5378429;33;33643;-85
2023/08/15 04:34:48;;;;;;;7.70;5.10;;;;;;;19.15;100.00;100775.91;5366297;33;33638;-85
2023/08/15 04:37:53;;;;;;;6.53;4.97;;;;;;;19.22;100.00;100775.87;5379919;33;33824;-84
2023/08/15 04:40:56;;;;;;;6.22;4.57;;;;;;;19.25;100.00;100775.44;5379414;33;34967;-84
2023/08/15 04:44:02;;;;;;;7.18;4.95;;;;;;;19.35;100.00;100780.34;5378253;33;34907;-84
2023/08/15 04:47:05;;;;;;;7.12;4.45;;;;;;;19.44;100.00;100784.47;5380016;33;33718;-84
2023/08/15 04:50:08;;;;;;;6.43;5.00;;;;;;;19.57;100.00;100786.19;5369294;33;34358;-84
2023/08/15 04:53:11;;;;;;;6.12;5.30;;;;;;;19.65;100.00;100775.00;5378530;33;33760;-84
2023/08/15 04:56:14;;;;;;;5.90;4.97;;;;;;;19.73;100.00;100788.38;5379364;33;34272;-83
2023/08/15 04:59:18;;;;;;;7.95;4.50;;;;;;;19.84;100.00;100786.78;5381735;33;34627;-83
2023/08/15 05:02:21;;;;;;;8.75;4.97;;;;;;;19.94;100.00;100782.41;5380114;33;33380;-87
2023/08/15 05:05:24;;;;;;;5.87;4.90;;;;;;;20.07;100.00;100784.16;5368615;33;33575;-87
2023/08/15 05:08:27;;;;;;;6.45;5.20;;;;;;;20.16;100.00;100788.25;5369245;33;34878;-88
2023/08/15 05:11:30;;;;;;;4.87;4.35;;;;;;;20.30;100.00;100794.38;5380110;33;34816;-88
2023/08/15 05:14:33;;;;;;;6.93;4.90;;;;;;;20.38;100.00;100791.28;5396217;33;34235;-84
2023/08/15 05:17:36;;;;;;;5.95;4.75;;;;;;;20.49;100.00;100788.84;5384869;33;33888;-84
2023/08/15 05:20:39;;;;;;;5.53;4.55;;;;;;;20.56;100.00;100784.09;5384798;33;33928;-84
2023/08/15 05:23:42;;;;;;;9.63;4.68;;;;;;;20.70;100.00;100792.97;5391092;33;34491;-84
2023/08/15 05:26:45;;;;;;;8.48;5.28;;;;;;;20.86;100.00;100792.28;5395145;33;35263;-82
2023/08/15 05:29:48;;;;;;;6.00;5.07;;;;;;;20.98;100.00;100786.81;5371724;33;33521;-82
2023/08/15 05:32:51;;;;;;;5.45;4.45;;;;;;;21.22;100.00;100801.34;5383556;33;34487;-83
2023/08/15 05:35:54;;;;;;;8.55;4.75;;;;;;;21.33;100.00;100792.31;5383022;33;33756;-82
2023/08/15 05:38:57;;;;;;;7.78;4.62;;;;;;;21.46;100.00;100794.81;5396664;33;33836;-82
2023/08/15 05:42:00;;;;;;;6.50;4.60;;;;;;;21.57;100.00;100789.56;5395291;32;33644;-83
2023/08/15 05:45:03;;;;;;;5.75;4.50;;;;;;;21.65;100.00;100795.50;5383868;33;33851;-83
2023/08/15 05:48:06;;;;;;;6.35;4.75;;;;;;;21.87;100.00;100787.47;5395796;33;33385;-83
2023/08/15 05:51:13;;;;;;;8.10;4.97;;;;;;;22.00;100.00;100789.13;5395672;33;33877;-82
2023/08/15 05:54:16;;;;;;;7.03;4.60;;;;;;;22.21;100.00;100790.38;5383635;33;33812;-83
2023/08/15 05:57:20;;;;;;;5.22;4.62;;;;;;;22.33;100.00;100793.91;5383953;33;33770;-82
2023/08/15 06:00:23;;;;;;;5.07;4.40;;;;;;;22.40;100.00;100791.00;5395408;33;34485;-83
2023/08/15 06:03:26;;;;;;;7.12;4.50;;;;;;;22.58;100.00;100784.44;5396471;33;33927;-82
2023/08/15 06:06:49;;;;;;;9.98;4.53;;;;;;;22.73;100.00;100782.00;5385529;33;33617;-82
2023/08/15 06:09:52;;;;;;;5.10;4.25;;;;;;;22.76;100.00;100784.25;5383182;33;33748;-82
2023/08/15 06:12:55;;;;;;;4.87;4.37;;;;;;;22.97;100.00;100790.91;5376996;33;33941;-82
2023/08/15 06:15:58;;;;;;;6.70;4.20;;;;;;;23.04;100.00;100788.81;5389133;33;34370;-82
2023/08/15 06:19:01;;;;;;;12.68;4.68;;;;;;;23.13;100.00;100797.47;5377289;33;33764;-82
2023/08/15 06:22:04;;;;;;;8.15;4.10;;;;;;;23.22;100.00;100784.97;5384287;33;33657;-82
2023/08/15 06:25:09;;;;;;;9.20;4.53;;;;;;;23.52;100.00;100789.28;5384581;33;33756;-82
2023/08/15 06:28:12;;;;;;;6.68;4.22;;;;;;;23.76;100.00;100789.91;5395683;33;33505;-82
2023/08/15 06:31:15;;;;;;;9.05;4.47;;;;;;;23.89;97.42;100778.50;5383670;33;33742;-82
2023/08/15 06:34:18;;;;;;;7.60;4.45;;;;;;;24.09;97.87;100779.84;5383992;33;33776;-82
2023/08/15 06:37:20;;;;;;;6.32;4.53;;;;;;;24.20;96.97;100771.44;5399109;33;33960;-82
2023/08/15 06:40:24;;;;;;;7.70;4.15;;;;;;;24.33;94.88;100786.69;5400335;32;34827;-83
2023/08/15 06:43:27;;;;;;;6.90;4.00;;;;;;;24.49;93.87;100782.22;5397717;33;34242;-82
2023/08/15 06:46:30;;;;;;;5.93;4.20;;;;;;;24.73;94.23;100781.88;5398754;33;33533;-82
2023/08/15 06:49:33;;;;;;;6.40;4.12;;;;;;;24.83;91.07;100780.06;5382950;33;33715;-82
2023/08/15 06:52:36;;;;;;;5.22;4.18;;;;;;;24.82;91.03;100781.12;5382822;33;33524;-82
2023/08/15 06:55:38;;;;;;;4.65;4.00;;;;;;;25.05;91.47;100785.44;5386685;33;33764;-82
2023/08/15 06:58:41;;;;;;;5.03;3.97;;;;;;;25.24;92.47;100780.38;5384318;33;34002;-82
2023/08/15 07:01:44;;;;;;;5.47;3.90;;;;;;;25.28;91.83;100787.00;5385692;33;34032;-82
2023/08/15 07:04:51;;;;;;;9.05;4.25;;;;;;;25.35;88.87;100781.25;5385379;33;33517;-81
2023/08/15 07:07:54;;;;;;;5.47;4.12;;;;;;;25.50;89.21;100784.09;5383922;33;33805;-86
2023/08/15 07:10:58;;;;;;;5.25;4.10;;;;;;;25.68;89.72;100777.31;5398124;33;33715;-86
2023/08/15 07:14:01;;;;;;;6.97;4.50;;;;;;;25.82;86.25;100774.91;5402144;33;33799;-86
2023/08/15 07:17:04;;;;;;;6.05;4.05;;;;;;;26.07;86.23;100767.84;5401793;32;33587;-86
2023/08/15 07:20:09;;;;;;;6.93;4.85;;;;;;;26.25;84.92;100767.31;5388643;33;34459;-83
2023/08/15 07:23:12;;;;;;;6.78;4.03;;;;;;;26.33;84.24;100764.03;5401860;33;33995;-82
2023/08/15 07:26:15;;;;;;;5.15;3.90;;;;;;;26.25;83.92;100759.03;5397743;33;33538;-82
2023/08/15 07:29:18;;;;;;;6.68;4.15;;;;;;;26.43;85.73;100761.25;5378176;33;34074;-82
2023/08/15 07:32:20;;;;;;;6.00;4.15;;;;;;;26.46;83.76;100759.88;5385090;33;33901;-82
2023/08/15 07:35:24;;;;;;;5.28;4.18;;;;;;;26.55;83.33;100766.56;5372969;33;34577;-82
2023/08/15 07:38:26;;;;;;;4.78;4.28;;;;;;;26.64;82.67;100761.31;5372973;33;33984;-82
2023/08/15 07:41:30;;;;;;;6.68;4.40;;;;;;;26.64;83.61;100766.84;5385090;33;34071;-82
2023/08/15 07:44:33;;;;;;;5.65;4.03;;;;;;;26.93;82.24;100767.09;5400119;33;34267;-82
2023/08/15 07:47:36;;;;;;;4.50;4.10;;;;;;;27.06;79.56;100763.78;5363746;33;34818;-82
2023/08/15 07:50:39;;;;;;;5.70;3.85;;;;;;;27.25;82.04;100760.47;5401089;33;35194;-83
2023/08/15 07:53:42;;;;;;;7.55;4.22;;;;;;;27.39;80.89;100763.47;5375195;33;33626;-82
2023/08/15 07:56:44;;;;;;;4.72;4.15;;;;;;;27.50;80.45;100757.62;5373328;33;33890;-82
2023/08/15 07:59:47;;;;;;;7.85;4.35;;;;;;;27.52;78.14;100758.16;5371787;33;33850;-82
2023/08/15 08:02:50;;;;;;;4.65;3.80;;;;;;;27.63;78.87;100755.37;5385005;33;33816;-83
2023/08/15 08:05:53;;;;;;;5.30;4.10;;;;;;;27.78;78.78;100753.38;5373137;33;33717;-83
2023/08/15 08:08:57;;;;;;;11.57;4.45;;;;;;;27.80;77.69;100751.16;5385056;33;33435;-83
2023/08/15 08:12:03;;;;;;;9.55;4.25;;;;;;;27.83;78.10;100758.09;5385698;33;34192;-82
2023/08/15 08:15:06;;;;;;;5.95;4.22;;;;;;;28.03;78.23;100754.38;5372975;33;33841;-83
2023/08/15 08:18:09;;;;;;;9.20;4.20;;;;;;;28.03;76.51;100749.66;5398996;33;33790;-83
2023/08/15 08:21:12;;;;;;;6.10;3.97;;;;;;;28.07;76.51;100749.09;5393671;33;35393;-82
2023/08/15 08:24:15;;;;;;;4.95;4.03;;;;;;;28.12;77.72;100743.53;5393659;33;33646;-83
2023/08/15 08:27:18;;;;;;;7.72;4.12;;;;;;;28.47;75.35;100746.09;5385001;33;34425;-82
2023/08/15 08:30:22;;;;;;;6.37;4.37;;;;;;;28.55;73.98;100741.03;5360753;33;33639;-83
2023/08/15 08:33:28;;;;;;;5.03;4.43;;;;;;;28.63;74.39;100748.72;5384667;33;33413;-83
2023/08/15 08:36:31;;;;;;;4.53;3.80;;;;;;;28.52;73.30;100748.00;5372499;33;33648;-83
2023/08/15 08:39:34;;;;;;;6.55;4.07;;;;;;;28.46;72.80;100746.38;5372245;33;33729;-83
2023/08/15 08:42:37;;;;;;;6.07;4.28;;;;;;;28.45;72.31;100740.00;5382659;33;33474;-83
2023/08/15 08:45:46;;;;;;;6.55;4.47;;;;;;;28.59;74.12;100742.13;5378480;33;33714;-83
2023/08/15 08:48:50;;;;;;;5.10;4.03;;;;;;;28.44;73.89;100741.13;5396820;33;33868;-82
2023/08/15 08:51:55;;;;;;;4.28;3.37;;;;;;;28.78;72.92;100750.53;5372647;33;33930;-83
2023/08/15 08:54:58;;;;;;;7.53;4.15;;;;;;;28.96;69.35;100743.44;5387687;33;33350;-83
2023/08/15 08:58:03;;;;;;;5.25;4.00;;;;;;;29.08;69.51;100744.75;5397335;33;34590;-83
2023/08/15 09:01:07;;;;;;;4.95;4.22;;;;;;;29.32;71.18;100738.41;5397267;33;33875;-83
2023/08/15 09:04:10;;;;;;;4.72;4.00;;;;;;;29.03;70.90;100744.78;5370965;33;33385;-83
2023/08/15 09:07:15;;;;;;;7.80;4.25;;;;;;;29.19;69.90;100741.84;5381022;33;34556;-83
2023/08/15 09:10:21;;;;;;;5.35;4.25;;;;;;;29.25;68.89;100738.75;5397578;33;34040;-83
2023/08/15 09:13:24;;;;;;;7.03;4.07;;;;;;;29.41;67.88;100733.84;5395517;33;33521;-83
2023/08/15 09:16:27;;;;;;;5.72;3.95;;;;;;;29.54;67.04;100732.31;5371214;33;33419;-86
2023/08/15 09:19:39;;;;;;;5.80;3.70;;;;;;;29.52;70.04;100729.84;5398419;33;34635;-86
2023/08/15 09:22:46;;;;;;;4.72;3.72;;;;;;;29.80;66.89;100730.88;5412690;33;34343;-83
2023/08/15 09:25:54;;;;;;;5.60;3.87;;;;;;;29.98;65.94;100715.37;5404124;33;34226;-83
2023/08/15 09:28:57;;;;;;;5.10;4.03;;;;;;;30.22;65.25;100711.72;5384876;33;34320;-83
2023/08/15 09:31:59;;;;;;;4.28;3.72;;;;;;;30.52;63.67;100726.25;5372232;33;33858;-83
2023/08/15 09:35:03;;;;;;;5.25;3.30;;;;;;;30.43;61.16;100715.81;5371118;33;34495;-82
2023/08/15 09:38:07;;;;;;;3.25;2.67;;;;;;;30.67;60.89;100715.69;5371662;33;33412;-83
2023/08/15 09:41:14;;;;;;;3.95;2.80;;;;;;;30.84;50.65;100722.69;5384774;33;33865;-82
2023/08/15 09:44:30;;;;;;;4.60;2.70;;;;;;;30.90;50.61;100718.66;5387193;33;33791;-83
2023/08/15 09:47:36;;;;;;;4.35;2.83;;;;;;;31.14;49.57;100712.94;5403212;33;33358;-82
2023/08/15 09:50:43;;;;;;;2.87;2.65;;;;;;;31.40;49.91;100718.84;5408006;33;34310;-82
2023/08/15 09:53:47;;;;;;;4.15;3.33;;;;;;;31.61;47.83;100720.06;5403743;33;34154;-83
2023/08/15 09:56:50;;;;;;;3.10;2.70;;;;;;;31.57;49.52;100716.25;5382803;33;33705;-83
2023/08/15 09:59:53;;;;;;;3.25;2.95;;;;;;;31.70;48.00;100725.72;5396034;33;34681;-82
2023/08/15 10:03:01;;;;;;;3.67;2.70;;;;;;;31.73;47.54;100711.16;5396603;32;35205;-83
2023/08/15 10:06:07;;;;;;;5.75;2.70;;;;;;;31.88;45.18;100715.56;5405248;33;34178;-82
2023/08/15 10:09:14;;;;;;;3.12;2.83;;;;;;;31.83;47.68;100708.19;5397118;33;33954;-82
2023/08/15 10:12:18;;;;;;;5.03;2.70;;;;;;;32.19;46.94;100709.34;5382809;33;33423;-82
2023/08/15 10:15:22;;;;;;;3.12;2.70;;;;;;;32.44;47.23;100703.16;5396314;33;34617;-83
2023/08/15 10:18:25;;;;;;;3.00;2.70;;;;;;;32.78;46.55;100714.87;5382606;33;33821;-83
2023/08/15 10:21:49;;;;;;;3.28;2.47;;;;;;;32.58;42.52;100714.25;5382566;33;33516;-82
2023/08/15 10:24:54;;;;;;;4.95;3.10;;;;;;;32.79;43.72;100722.06;5382962;33;33445;-83
2023/08/15 10:27:57;;;;;;;2.70;2.50;;;;;;;32.74;42.33;100720.25;5382657;33;34491;-83
2023/08/15 10:31:00;;;;;;;2.75;2.53;;;;;;;33.04;43.84;100718.63;5394777;33;33734;-82
2023/08/15 10:34:04;;;;;;;4.60;2.90;;;;;;;32.70;43.48;100708.94;5396247;33;33396;-83
2023/08/15 10:37:32;;;;;;;4.37;2.70;;;;;;;33.19;44.50;100704.25;5382770;33;34239;-82
2023/08/15 10:40:39;;;;;;;2.97;2.30;;;;;;;33.86;39.73;100710.69;5394909;33;34474;-83
2023/08/15 10:43:50;;;;;;;3.33;2.60;;;;;;;33.73;42.27;100706.91;5382638;33;33525;-83
2023/08/15 10:46:56;;;;;;;2.75;2.28;;;;;;;33.82;38.95;100699.38;5383164;33;34061;-82
2023/08/15 10:49:59;;;;;;;4.30;2.85;;;;;;;33.88;40.09;100697.25;5365569;33;33760;-82
2023/08/15 10:53:04;;;;;;;2.10;2.00;;;;;;;34.19;38.57;100690.69;5395934;33;33610;-82
2023/08/15 10:56:08;;;;;;;3.37;2.72;;;;;;;34.34;39.78;100681.78;5395422;33;34653;-82
2023/08/15 10:59:14;;;;;;;4.22;3.03;;;;;;;34.57;39.80;100687.22;5395414;33;33741;-82
2023/08/15 11:02:17;;;;;;;3.67;2.60;;;;;;;35.01;35.74;100691.53;5386579;33;33608;-82
2023/08/15 11:05:20;;;;;;;3.22;2.80;;;;;;;35.54;36.03;100683.69;5383219;33;33780;-82
2023/08/15 11:08:23;;;;;;;5.05;2.58;;;;;;;35.57;35.83;100683.06;5386464;33;33815;-83
2023/08/15 11:11:26;;;;;;;5.75;2.90;;;;;;;35.68;35.21;100681.50;5375162;33;33967;-82
2023/08/15 11:14:29;;;;;;;5.00;2.62;;;;;;;35.77;33.04;100681.44;5373551;33;34514;-82
2023/08/15 11:17:32;;;;;;;3.42;2.60;;;;;;;36.27;34.58;100683.34;5402079;33;33918;-82
2023/08/15 11:20:36;;;;;;;3.35;2.70;;;;;;;36.29;32.73;100687.47;5396483;33;34242;-82
2023/08/15 11:23:39;;;;;;;5.75;2.70;;;;;;;37.01;31.80;100678.81;5389079;33;35042;-82
2023/08/15 11:26:42;;;;;;;3.58;2.60;;;;;;;37.63;30.77;100674.81;5399343;33;34500;-82
2023/08/15 11:29:56;;;;;;;3.20;2.90;;;;;;;36.88;29.67;100665.91;5394069;33;34868;-82
2023/08/15 11:32:59;;;;;;;2.80;2.60;;;;;;;37.54;29.90;100660.09;5393876;33;33625;-82
2023/08/15 11:36:03;;;;;;;3.60;2.60;;;;;;;38.02;28.97;100661.16;5384642;33;34717;-83
2023/08/15 11:39:12;;;;;;;4.32;2.97;;;;;;;38.34;28.58;100664.88;5398590;33;34095;-82
2023/08/15 11:42:15;;;;;;;3.92;2.62;;;;;;;39.80;26.66;100664.16;5399875;33;33682;-81
2023/08/15 11:45:21;;;;;;;3.15;2.58;;;;;;;40.90;24.94;100664.72;5386642;33;33402;-81
2023/08/15 11:48:24;;;;;;;3.45;2.40;;;;;;;41.84;22.82;100670.63;5398565;33;34392;-82
2023/08/15 11:51:27;;;;;;;2.58;2.37;;;;;;;42.17;24.15;100676.72;5399865;33;33890;-81
2023/08/15 11:54:30;;;;;;;2.75;2.28;;;;;;;42.11;22.83;100668.56;5383396;33;33955;-82
2023/08/15 11:57:36;;;;;;;3.08;2.72;;;;;;;43.13;22.21;100659.88;5385040;33;34624;-82
2023/08/15 12:00:39;;;;;;;4.40;2.30;;;;;;;42.73;22.44;100656.72;5384474;33;33828;-82
2023/08/15 12:03:43;;;;;;;2.80;2.42;;;;;;;43.55;22.18;100656.56;5372846;33;34078;-82
2023/08/15 12:06:45;;;;;;;2.72;2.40;;;;;;;43.67;22.68;100652.56;5392839;33;34511;-82
2023/08/15 12:09:48;;;;;;;2.35;2.15;;;;;;;43.78;22.75;100647.75;5398923;33;34118;-82
2023/08/15 12:12:54;;;;;;;2.37;2.10;;;;;;;44.26;20.81;100632.53;5374968;33;35152;-86
2023/08/15 12:15:58;;;;;;;2.25;2.05;;;;;;;43.81;22.04;100641.28;5384315;33;33454;-87
2023/08/15 12:19:01;;;;;;;2.35;2.15;;;;;;;44.75;20.21;100643.19;5383174;33;33496;-83
2023/08/15 12:22:04;;;;;;;3.58;2.20;;;;;;;45.46;19.54;100624.44;5369147;33;34568;-83
2023/08/15 12:25:08;;;;;;;3.75;2.22;;;;;;;45.17;20.27;100624.53;5371822;33;34265;-83
2023/08/15 12:28:13;;;;;;;2.92;2.05;;;;;;;45.45;19.83;100617.13;5397388;33;34627;-83
2023/08/15 12:31:16;;;;;;;3.42;2.33;;;;;;;46.59;19.22;100624.28;5397313;33;33589;-83
2023/08/15 12:34:19;;;;;;;2.42;2.22;;;;;;;46.01;19.65;100626.69;5366440;33;33922;-82
2023/08/15 12:37:22;;;;;;;2.92;2.20;;;;;;;46.15;19.65;100622.94;5365448;33;34637;-83
2023/08/15 12:40:26;;;;;;;2.05;1.95;;;;;;;47.03;19.51;100623.53;5372258;33;34636;-82
2023/08/15 12:43:32;;;;;;;2.17;1.98;;;;;;;47.05;18.36;100622.31;5396826;33;34085;-82
2023/08/15 12:46:35;;;;;;;3.05;2.10;;;;;;;47.43;17.42;100618.25;5371774;33;33803;-82
2023/08/15 12:49:39;;;;;;;3.20;2.37;;;;;;;44.76;20.02;100616.41;5383472;33;35053;-82
2023/08/15 12:52:42;;;;;;;3.03;2.37;;;;;;;43.69;20.41;100621.78;5390827;33;33809;-83
2023/08/15 12:55:45;;;;;;;2.60;2.40;;;;;;;43.43;20.61;100611.50;5391880;33;34028;-82
2023/08/15 12:58:48;;;;;;;2.40;2.20;;;;;;;42.27;21.81;100606.09;5380508;33;33747;-82
2023/08/15 13:01:51;;;;;;;3.28;2.20;;;;;;;41.50;22.48;100613.22;5366059;33;34322;-82
2023/08/15 13:04:54;;;;;;;2.90;2.60;;;;;;;43.42;21.26;100619.19;5395362;33;33767;-83
2023/08/15 13:07:57;;;;;;;2.45;2.20;;;;;;;44.85;19.34;100612.38;5383332;33;33661;-82
2023/08/15 13:11:00;;;;;;;3.22;2.40;;;;;;;46.43;17.72;100619.13;5371279;33;34099;-83
2023/08/15 13:14:05;;;;;;;2.95;2.28;;;;;;;45.57;18.57;100602.47;5383414;33;35063;-82
2023/08/15 13:17:08;;;;;;;4.10;2.17;;;;;;;44.73;20.66;100594.50;5371766;33;33542;-83
2023/08/15 13:20:11;;;;;;;2.60;2.40;;;;;;;42.86;21.72;100586.44;5396787;33;34552;-82
2023/08/15 13:23:14;;;;;;;2.50;2.30;;;;;;;40.69;24.15;100576.81;5382703;33;34856;-82
2023/08/15 13:26:18;;;;;;;4.15;2.67;;;;;;;38.55;26.70;100582.25;5382511;33;34066;-82
2023/08/15 13:29:21;;;;;;;4.03;2.50;;;;;;;37.71;27.08;100576.72;5393708;33;33777;-82
2023/08/15 13:32:24;;;;;;;4.18;2.72;;;;;;;37.43;28.54;100571.84;5382915;33;33862;-82
2023/08/15 13:35:27;;;;;;;3.42;2.78;;;;;;;39.09;26.74;100572.34;5370749;33;33700;-82
2023/08/15 13:38:30;;;;;;;3.45;2.47;;;;;;;40.60;25.40;100568.56;5383527;33;35350;-82
2023/08/15 13:41:33;;;;;;;3.00;2.60;;;;;;;43.55;22.27;100562.19;5386177;33;34338;-82
2023/08/15 13:44:39;;;;;;;3.47;2.70;;;;;;;45.15;19.87;100567.25;5372341;33;34551;-82
2023/08/15 13:47:42;;;;;;;4.85;2.40;;;;;;;46.06;18.93;100572.16;5384160;33;33722;-82
2023/08/15 13:50:45;;;;;;;2.45;2.25;;;;;;;46.89;19.01;100566.63;5372776;33;34394;-83
2023/08/15 13:53:49;;;;;;;3.08;2.37;;;;;;;45.96;18.99;100566.53;5373891;33;33886;-82
2023/08/15 13:56:51;;;;;;;2.62;2.17;;;;;;;44.87;19.75;100572.97;5384983;33;34283;-82
2023/08/15 13:59:57;;;;;;;;;;;;;;;44.93;19.72;100560.81;5370477;33;33759;-82
2023/08/15 14:03:00;;;;;;;2.60;2.40;;;;;;;46.29;18.05;100565.94;5387158;33;33932;-82
2023/08/15 14:06:03;;;;;;;2.25;2.05;;;;;;;46.77;17.23;100570.03;5396245;33;34147;-82
2023/08/15 14:09:06;;;;;;;2.33;2.22;;;;;;;46.25;17.91;100562.28;5383710;33;34604;-82
2023/08/15 14:12:09;;;;;;;2.75;2.50;;;;;;;45.41;18.59;100568.00;5371788;33;33628;-82
2023/08/15 14:15:13;;;;;;;5.68;2.33;;;;;;;42.03;22.10;100562.16;5359771;33;34269;-82
2023/08/15 14:18:16;;;;;;;3.00;2.67;;;;;;;40.37;24.37;100570.59;5384136;33;33860;-82
2023/08/15 14:21:18;;;;;;;2.97;2.70;;;;;;;38.85;24.73;100562.06;5397713;33;34528;-82
2023/08/15 14:24:22;;;;;;;3.17;2.72;;;;;;;37.89;26.33;100566.78;5382883;33;34102;-86
2023/08/15 14:27:25;;;;;;;4.57;2.83;;;;;;;36.92;26.77;100566.63;5392438;33;35175;-86
2023/08/15 14:30:27;;;;;;;4.55;3.05;;;;;;;36.65;27.29;100565.34;5382968;33;34520;-86
2023/08/15 14:33:30;;;;;;;2.92;2.60;;;;;;;36.47;27.61;100563.88;5396172;33;33645;-82
2023/08/15 14:36:33;;;;;;;3.08;2.80;;;;;;;36.10;28.62;100561.03;5370453;33;35025;-82
2023/08/15 14:39:36;;;;;;;2.60;2.40;;;;;;;36.18;28.85;100556.47;5395318;33;34571;-82
2023/08/15 14:42:40;;;;;;;3.30;3.00;;;;;;;36.21;28.73;100553.78;5367418;33;33774;-82
2023/08/15 14:45:42;;;;;;;3.08;2.78;;;;;;;36.15;28.98;100551.56;5379683;33;33610;-82
2023/08/15 14:48:45;;;;;;;5.90;2.80;;;;;;;35.70;29.37;100553.13;5374720;33;34031;-85
2023/08/15 14:51:48;;;;;;;3.40;3.10;;;;;;;35.19;30.39;100553.19;5384897;33;33887;-84
2023/08/15 14:54:52;;;;;;;3.28;2.80;;;;;;;34.72;31.24;100547.69;5378393;33;33546;-85
2023/08/15 14:57:54;;;;;;;3.53;3.03;;;;;;;34.45;31.33;100542.50;5380667;33;34004;-84
2023/08/15 15:01:00;;;;;;;3.00;2.80;;;;;;;34.03;32.05;100540.31;5386334;33;34810;-85
2023/08/15 15:04:04;;;;;;;4.50;2.92;;;;;;;33.88;33.14;100540.81;5361499;33;34166;-84
2023/08/15 15:07:09;;;;;;;4.35;2.60;;;;;;;34.01;35.08;100542.59;5373861;33;159691;-84
2023/08/15 15:10:11;;;;;;;5.30;3.10;;;;;;;33.98;33.49;100540.44;5366846;33;34358;-85
2023/08/15 15:13:17;;;;;;;3.28;2.97;;;;;;;33.80;33.63;100534.06;5382879;33;33546;-85
2023/08/15 15:16:19;;;;;;;3.53;2.92;;;;;;;33.61;33.52;100534.44;5372697;33;34539;-84
2023/08/15 15:19:23;;;;;;;3.28;2.97;;;;;;;33.42;35.39;100525.53;5372312;33;33306;-85
2023/08/15 15:22:26;;;;;;;7.65;3.28;;;;;;;33.40;35.73;100536.19;5397305;33;33677;-85
2023/08/15 15:25:29;;;;;;;6.65;3.65;;;;;;;33.18;34.98;100537.19;5396592;33;33448;-85
2023/08/15 15:28:32;;;;;;;3.20;2.90;;;;;;;33.16;35.35;100529.13;5396568;33;33685;-85
2023/08/15 15:31:35;;;;;;;3.22;2.95;;;;;;;33.27;35.15;100528.81;5396815;33;33930;-84
2023/08/15 15:34:38;;;;;;;3.42;3.05;;;;;;;33.31;35.05;100521.41;5397934;33;34243;-84
2023/08/15 15:37:42;;;;;;;5.95;3.35;;;;;;;33.41;36.32;100521.13;5384506;33;34793;-82
2023/08/15 15:40:45;;;;;;;3.47;2.85;;;;;;;33.21;36.81;100530.12;5396921;33;33983;-82
2023/08/15 15:43:51;;;;;;;4.85;3.03;;;;;;;32.84;36.36;100529.53;5382275;33;33869;-82
2023/08/15 15:46:54;;;;;;;3.85;3.08;;;;;;;32.86;36.33;100527.25;5384714;33;33655;-82
2023/08/15 15:49:57;;;;;;;4.25;3.10;;;;;;;32.60;36.21;100514.03;5398912;33;33762;-82
